Time;durP1;ratioP1;P1;durP2;ratioP2;P2;SDS_P1;SDS_P2;PMS_P1;PMS_P2;Temp;Humidity;BMP_temperature;BMP_pressure;BME280_temperature;BME280_humidity;BME280_pressure;Samples;Min_cycle;Max_cycle;Signal;HPM_P1;HPM_P2
2021/01/16 00:00:41;;;;;;;13.10;10.00;;;2.10;99.90;;;;;;4938187;28;20192;-74
2021/01/16 00:03:13;;;;;;;13.83;9.57;;;1.90;99.90;;;;;;4936581;29;20727;-74
2021/01/16 00:05:39;;;;;;;12.65;8.95;;;1.90;99.90;;;;;;4955473;28;20431;-74
2021/01/16 00:08:14;;;;;;;12.90;9.50;;;2.00;99.90;;;;;;4941055;29;20212;-74
2021/01/16 00:10:46;;;;;;;14.88;9.70;;;2.20;99.90;;;;;;4951546;28;20199;-74
2021/01/16 00:13:17;;;;;;;13.27;8.88;;;2.20;99.90;;;;;;4935940;29;20841;-74
2021/01/16 00:15:43;;;;;;;14.90;10.70;;;2.00;99.90;;;;;;4933462;29;20213;-73
2021/01/16 00:18:12;;;;;;;14.82;9.05;;;2.10;99.90;;;;;;4949548;29;20218;-73
2021/01/16 00:20:43;;;;;;;25.05;12.90;;;2.10;99.90;;;;;;4945875;28;20196;-74
2021/01/16 00:23:10;;;;;;;14.82;9.65;;;2.10;99.90;;;;;;4953973;29;20188;-74
2021/01/16 00:25:37;;;;;;;13.43;10.05;;;1.90;99.90;;;;;;4948403;29;20239;-74
2021/01/16 00:28:04;;;;;;;14.95;10.00;;;2.10;99.90;;;;;;4935249;29;20211;-74
2021/01/16 00:30:32;;;;;;;17.27;10.35;;;2.30;99.90;;;;;;4925005;29;20254;-74
2021/01/16 00:32:59;;;;;;;16.77;10.32;;;2.10;99.90;;;;;;4926561;29;20228;-73
2021/01/16 00:35:28;;;;;;;16.50;9.93;;;2.20;99.90;;;;;;4933522;29;20790;-73
2021/01/16 00:37:54;;;;;;;14.65;9.68;;;2.00;99.90;;;;;;4938062;29;20605;-73
2021/01/16 00:40:23;;;;;;;13.27;9.60;;;2.00;99.90;;;;;;4953238;29;20208;-73
2021/01/16 00:42:51;;;;;;;13.73;10.00;;;2.00;99.90;;;;;;4949517;29;20199;-74
2021/01/16 00:45:18;;;;;;;15.30;9.43;;;2.10;99.90;;;;;;4953669;29;20555;-73
2021/01/16 00:47:45;;;;;;;16.42;10.00;;;2.30;99.90;;;;;;4953224;29;20210;-74
2021/01/16 00:50:14;;;;;;;16.42;10.27;;;1.90;99.90;;;;;;4943848;29;20569;-74
2021/01/16 00:52:41;;;;;;;16.08;9.85;;;2.20;99.90;;;;;;4951251;28;20195;-74
2021/01/16 00:55:08;;;;;;;13.90;9.80;;;2.10;99.90;;;;;;4954170;29;20172;-74
2021/01/16 00:57:36;;;;;;;14.80;9.35;;;2.30;99.90;;;;;;4954094;28;20776;-74
2021/01/16 01:00:11;;;;;;;13.60;9.48;;;2.00;99.90;;;;;;4916789;29;20193;-74
2021/01/16 01:02:45;;;;;;;14.13;9.13;;;2.20;99.90;;;;;;4938365;29;20267;-74
2021/01/16 01:05:14;;;;;;;15.23;9.98;;;2.20;99.90;;;;;;4930365;29;20191;-74
2021/01/16 01:07:44;;;;;;;17.13;10.48;;;2.20;99.90;;;;;;4931217;29;20197;-74
2021/01/16 01:10:10;;;;;;;15.50;9.63;;;2.10;99.90;;;;;;4929006;29;20208;-74
2021/01/16 01:12:39;;;;;;;16.83;9.77;;;2.30;99.90;;;;;;4935690;29;20184;-74
2021/01/16 01:15:08;;;;;;;16.17;9.80;;;2.20;99.90;;;;;;4934647;29;20271;-74
2021/01/16 01:17:34;;;;;;;14.50;10.15;;;2.30;99.90;;;;;;4938768;29;20201;-74
2021/01/16 01:20:00;;;;;;;15.73;10.02;;;2.00;99.90;;;;;;4950086;29;20190;-74
2021/01/16 01:22:30;;;;;;;16.70;10.68;;;2.30;99.90;;;;;;4954022;28;20184;-74
2021/01/16 01:24:59;;;;;;;14.82;9.80;;;2.20;99.90;;;;;;4940073;29;20183;-73
2021/01/16 01:27:26;;;;;;;14.73;9.30;;;2.30;99.90;;;;;;4927376;29;20275;-74
2021/01/16 01:29:54;;;;;;;13.02;9.70;;;2.10;99.90;;;;;;4952569;29;20231;-74
2021/01/16 01:32:20;;;;;;;15.60;9.70;;;2.10;99.90;;;;;;4954400;29;21020;-74
2021/01/16 01:34:46;;;;;;;18.40;10.43;;;2.10;99.90;;;;;;4944931;29;20480;-74
2021/01/16 01:37:15;;;;;;;17.88;12.30;;;2.20;99.90;;;;;;4916227;29;20413;-73
2021/01/16 01:39:41;;;;;;;21.92;11.52;;;2.20;99.90;;;;;;4919236;29;20632;-73
2021/01/16 01:42:14;;;;;;;16.30;10.80;;;2.10;99.90;;;;;;4926207;29;20180;-74
2021/01/16 01:44:41;;;;;;;18.00;11.43;;;2.20;99.90;;;;;;4954248;28;20192;-74
2021/01/16 01:47:07;;;;;;;20.27;11.38;;;1.70;99.90;;;;;;4946881;28;20199;-74
2021/01/16 01:49:33;;;;;;;16.73;10.07;;;2.30;99.90;;;;;;4939630;29;20576;-74
2021/01/16 01:52:01;;;;;;;20.85;12.13;;;2.20;99.90;;;;;;4952978;29;20212;-74
2021/01/16 01:54:29;;;;;;;16.58;10.55;;;2.10;99.90;;;;;;4918955;29;20194;-74
2021/01/16 01:56:55;;;;;;;17.35;11.05;;;2.30;99.90;;;;;;4915157;29;20545;-74
2021/01/16 01:59:24;;;;;;;17.50;11.80;;;1.60;99.90;;;;;;4952978;29;20207;-74
2021/01/16 02:01:51;;;;;;;15.98;10.30;;;2.10;99.90;;;;;;4934563;29;20189;-73
2021/01/16 02:04:21;;;;;;;18.25;11.07;;;2.10;99.90;;;;;;4928312;29;20258;-74
2021/01/16 02:06:47;;;;;;;15.57;10.43;;;2.20;99.90;;;;;;4939047;29;20263;-74
2021/01/16 02:09:16;;;;;;;20.50;11.90;;;2.20;99.90;;;;;;4937575;29;20286;-74
2021/01/16 02:11:42;;;;;;;18.52;11.82;;;2.20;99.90;;;;;;4913343;29;20195;-74
2021/01/16 02:14:08;;;;;;;17.77;10.87;;;1.60;99.90;;;;;;4945827;29;20184;-74
2021/01/16 02:16:43;;;;;;;16.65;11.75;;;2.00;99.90;;;;;;4946983;29;20432;-74
2021/01/16 02:19:12;;;;;;;15.40;10.48;;;2.20;99.90;;;;;;4938962;29;20211;-74
2021/01/16 02:21:40;;;;;;;18.77;10.70;;;2.00;99.90;;;;;;4951579;29;20795;-74
2021/01/16 02:24:19;;;;;;;11.82;8.25;;;2.00;99.90;;;;;;4938868;29;20215;-74
2021/01/16 02:27:10;;;;;;;14.23;9.43;;;2.00;99.90;;;;;;4918601;29;20190;-74
2021/01/16 02:29:38;;;;;;;13.73;10.27;;;2.10;99.90;;;;;;4936647;29;20201;-74
2021/01/16 02:32:07;;;;;;;18.50;10.52;;;2.00;99.90;;;;;;4935639;29;20216;-74
2021/01/16 02:34:41;;;;;;;17.17;11.18;;;2.10;99.90;;;;;;4936974;29;20252;-74
2021/01/16 02:37:13;;;;;;;16.73;11.57;;;2.20;99.90;;;;;;4948212;29;20195;-74
2021/01/16 02:40:08;;;;;;;13.65;9.93;;;2.30;99.90;;;;;;4956971;28;20195;-74
2021/01/16 02:42:55;;;;;;;20.63;11.43;;;2.00;99.90;;;;;;4956218;29;20634;-74
2021/01/16 02:45:28;;;;;;;18.25;10.90;;;2.00;99.90;;;;;;4958559;28;20207;-74
2021/01/16 02:47:57;;;;;;;14.88;11.00;;;2.10;99.90;;;;;;4946768;29;20847;-74
2021/01/16 02:50:28;;;;;;;17.20;11.75;;;2.00;99.90;;;;;;4938346;29;20203;-74
2021/01/16 02:52:57;;;;;;;19.73;11.63;;;2.10;99.90;;;;;;4937261;29;20195;-74
2021/01/16 02:55:23;;;;;;;17.35;10.95;;;2.00;99.90;;;;;;4940932;29;20172;-74
2021/01/16 02:57:49;;;;;;;17.98;11.80;;;2.20;99.90;;;;;;4956190;29;20801;-74
2021/01/16 03:00:21;;;;;;;19.90;11.57;;;2.10;99.90;;;;;;4957313;28;20283;-74
2021/01/16 03:02:50;;;;;;;17.70;11.30;;;2.10;99.90;;;;;;4943646;29;20444;-73
2021/01/16 03:05:18;;;;;;;16.33;10.50;;;2.00;99.90;;;;;;4952936;29;20223;-74
2021/01/16 03:07:47;;;;;;;15.95;10.60;;;2.00;99.90;;;;;;4942720;29;20234;-74
2021/01/16 03:10:14;;;;;;;18.23;10.75;;;2.20;99.90;;;;;;4957011;28;20652;-74
2021/01/16 03:12:40;;;;;;;16.48;10.60;;;2.10;99.90;;;;;;4955390;29;20184;-74
2021/01/16 03:15:15;;;;;;;17.23;10.67;;;2.10;99.90;;;;;;4948992;29;20170;-74
2021/01/16 03:17:56;;;;;;;15.20;11.70;;;2.20;99.90;;;;;;4932434;29;20443;-74
2021/01/16 03:20:29;;;;;;;16.23;10.38;;;2.10;99.90;;;;;;4955406;29;20190;-74
2021/01/16 03:22:58;;;;;;;14.65;10.65;;;2.20;99.90;;;;;;4933400;29;20200;-74
2021/01/16 03:25:26;;;;;;;22.65;12.27;;;2.10;99.90;;;;;;4937361;29;20192;-73
2021/01/16 03:27:53;;;;;;;13.32;10.20;;;2.00;99.90;;;;;;4937572;29;20220;-73
2021/01/16 03:30:24;;;;;;;18.70;11.50;;;2.10;99.90;;;;;;4937994;29;20231;-74
2021/01/16 03:32:51;;;;;;;16.25;11.15;;;2.00;99.90;;;;;;4935771;29;20690;-74
2021/01/16 03:35:20;;;;;;;17.67;12.23;;;2.10;99.90;;;;;;4936990;29;20185;-74
2021/01/16 03:37:47;;;;;;;17.00;11.82;;;2.10;99.90;;;;;;4975382;23;20237;-82
2021/01/16 03:40:16;;;;;;;13.32;9.82;;;2.20;99.90;;;;;;4952916;28;20638;-83
2021/01/16 03:42:43;;;;;;;17.80;11.43;;;2.10;99.90;;;;;;4922387;29;20212;-82
2021/01/16 03:45:12;;;;;;;17.67;11.68;;;2.10;99.90;;;;;;4905805;29;20347;-82
2021/01/16 03:47:38;;;;;;;17.40;11.13;;;2.10;99.90;;;;;;4934622;29;20357;-82
2021/01/16 03:50:07;;;;;;;17.00;10.68;;;1.70;99.90;;;;;;4925177;29;20247;-82
2021/01/16 03:52:35;;;;;;;16.95;11.30;;;2.00;99.90;;;;;;4970348;28;20636;-82
2021/01/16 03:55:05;;;;;;;17.95;12.05;;;2.10;99.90;;;;;;4950047;28;20223;-82
2021/01/16 03:57:34;;;;;;;18.33;12.32;;;2.10;99.90;;;;;;4970426;28;20177;-82
2021/01/16 04:00:00;;;;;;;16.55;11.98;;;2.20;99.90;;;;;;4956612;28;20191;-83
2021/01/16 04:02:26;;;;;;;17.13;11.43;;;2.10;99.90;;;;;;4956326;28;20219;-83
2021/01/16 04:04:52;;;;;;;17.37;11.40;;;2.10;99.90;;;;;;4943922;28;20234;-82
2021/01/16 04:07:20;;;;;;;16.52;11.40;;;2.20;99.90;;;;;;4959484;28;20431;-83
2021/01/16 04:09:48;;;;;;;15.10;10.90;;;1.50;99.90;;;;;;4942345;29;20677;-82
2021/01/16 04:12:19;;;;;;;18.27;10.63;;;2.10;99.90;;;;;;4921438;29;20461;-83
2021/01/16 04:14:47;;;;;;;20.88;11.88;;;2.10;99.90;;;;;;4953424;28;20365;-82
2021/01/16 04:17:13;;;;;;;19.00;11.77;;;2.10;99.90;;;;;;4952321;28;20219;-82
2021/01/16 04:19:42;;;;;;;18.58;11.55;;;2.00;99.90;;;;;;4944647;29;20199;-82
2021/01/16 04:22:07;;;;;;;17.42;10.98;;;2.10;99.90;;;;;;4958602;28;20204;-83
2021/01/16 04:24:33;;;;;;;16.73;11.20;;;2.20;99.90;;;;;;4958558;28;20190;-82
2021/01/16 04:27:00;;;;;;;18.10;11.80;;;1.70;99.90;;;;;;4956150;28;20430;-82
2021/01/16 04:29:26;;;;;;;15.85;11.30;;;2.10;99.90;;;;;;4967177;28;20435;-83
2021/01/16 04:31:52;;;;;;;18.60;11.00;;;1.70;99.90;;;;;;4956231;28;20226;-82
2021/01/16 04:34:20;;;;;;;16.90;11.40;;;1.90;99.90;;;;;;4974299;28;20423;-82
2021/01/16 04:36:46;;;;;;;14.35;10.13;;;1.70;99.90;;;;;;4929550;29;20471;-82
2021/01/16 04:39:12;;;;;;;18.17;10.97;;;2.10;99.90;;;;;;4956326;28;20284;-82
2021/01/16 04:41:38;;;;;;;16.48;11.07;;;1.70;99.90;;;;;;4956463;28;20440;-83
2021/01/16 04:44:07;;;;;;;13.32;10.18;;;2.20;99.90;;;;;;4930585;29;20192;-83
2021/01/16 04:46:36;;;;;;;15.45;10.55;;;2.20;99.90;;;;;;4931031;28;20501;-82
2021/01/16 04:49:05;;;;;;;17.42;11.18;;;2.20;99.90;;;;;;4942571;28;20194;-82
2021/01/16 04:51:34;;;;;;;16.92;10.40;;;2.30;99.90;;;;;;4945853;28;20218;-82
2021/01/16 04:54:03;;;;;;;16.83;10.75;;;2.10;99.90;;;;;;4939420;29;20203;-82
2021/01/16 04:56:33;;;;;;;16.17;10.55;;;2.20;99.90;;;;;;4930415;28;20203;-82
2021/01/16 04:58:59;;;;;;;15.23;10.00;;;1.70;99.90;;;;;;4939731;28;20307;-82
2021/01/16 05:01:28;;;;;;;13.00;10.05;;;2.10;99.90;;;;;;4970011;28;20184;-82
2021/01/16 05:03:56;;;;;;;14.07;10.25;;;1.80;99.90;;;;;;4963718;28;20216;-82
2021/01/16 05:06:25;;;;;;;14.77;10.25;;;1.60;99.90;;;;;;4940721;28;20665;-82
2021/01/16 05:08:54;;;;;;;14.80;10.15;;;2.20;99.90;;;;;;4968997;28;20251;-83
2021/01/16 05:11:40;;;;;;;17.45;10.63;;;2.20;99.90;;;;;;4934435;28;20574;-82
2021/01/16 05:14:17;;;;;;;17.02;11.27;;;2.10;99.90;;;;;;4945451;28;20222;-82
2021/01/16 05:16:51;;;;;;;15.13;9.68;;;1.70;99.90;;;;;;4965468;28;20188;-82
2021/01/16 05:19:21;;;;;;;14.18;9.88;;;2.30;99.90;;;;;;4955266;28;20194;-82
2021/01/16 05:21:48;;;;;;;17.25;10.52;;;1.90;99.90;;;;;;4946009;28;20195;-82
2021/01/16 05:24:16;;;;;;;17.15;10.50;;;2.10;99.90;;;;;;4948396;28;20194;-82
2021/01/16 05:27:06;;;;;;;17.75;10.50;;;1.80;99.90;;;;;;4940277;28;20195;-82
2021/01/16 05:29:34;;;;;;;16.90;10.63;;;2.10;99.90;;;;;;4961006;28;20255;-82
2021/01/16 05:32:03;;;;;;;14.60;8.88;;;1.90;99.90;;;;;;4934763;28;20208;-82
2021/01/16 05:34:32;;;;;;;17.20;10.80;;;2.20;99.90;;;;;;4970373;28;20184;-82
2021/01/16 05:37:01;;;;;;;17.98;11.13;;;2.00;99.90;;;;;;4922915;29;20219;-82
2021/01/16 05:39:29;;;;;;;18.15;10.25;;;2.10;99.90;;;;;;4939466;28;20383;-82
2021/01/16 05:42:03;;;;;;;15.18;10.07;;;2.00;99.90;;;;;;4956359;28;20246;-82
2021/01/16 05:44:30;;;;;;;16.65;10.70;;;2.30;99.90;;;;;;4963798;28;20202;-83
2021/01/16 05:46:58;;;;;;;14.43;10.25;;;1.80;99.90;;;;;;4956700;28;20195;-82
2021/01/16 05:49:26;;;;;;;14.30;10.43;;;1.50;99.90;;;;;;4961226;28;20188;-82
2021/01/16 05:51:53;;;;;;;18.23;11.07;;;1.90;99.90;;;;;;4947460;28;20485;-82
2021/01/16 05:54:19;;;;;;;15.38;10.57;;;1.80;99.90;;;;;;4941029;28;20736;-82
2021/01/16 05:56:47;;;;;;;17.70;11.45;;;1.90;99.90;;;;;;4961120;28;20197;-82
2021/01/16 05:59:19;;;;;;;20.40;11.45;;;2.20;99.90;;;;;;4953502;28;20208;-82
2021/01/16 06:01:50;;;;;;;19.65;11.02;;;2.10;99.90;;;;;;4953618;28;20239;-82
2021/01/16 06:04:21;;;;;;;14.50;9.80;;;2.20;99.90;;;;;;4947313;29;20200;-82
2021/01/16 06:06:48;;;;;;;17.38;11.90;;;1.70;99.90;;;;;;4947907;29;20525;-83
2021/01/16 06:09:15;;;;;;;17.70;12.15;;;1.80;99.90;;;;;;4943152;28;20222;-82
2021/01/16 06:11:50;;;;;;;15.95;11.32;;;2.40;99.90;;;;;;4926821;29;20207;-82
2021/01/16 06:14:18;;;;;;;15.98;10.77;;;2.30;99.90;;;;;;4965077;28;20163;-82
2021/01/16 06:16:48;;;;;;;20.88;12.00;;;2.10;99.90;;;;;;4958884;28;20190;-82
2021/01/16 06:19:24;;;;;;;17.67;11.15;;;2.20;99.90;;;;;;4922194;29;20609;-82
2021/01/16 06:21:54;;;;;;;19.52;10.93;;;2.10;99.90;;;;;;4959767;28;20241;-82
2021/01/16 06:24:23;;;;;;;16.85;10.95;;;2.20;99.90;;;;;;4943975;28;20200;-82
2021/01/16 06:27:02;;;;;;;20.10;11.52;;;2.00;99.90;;;;;;4943944;28;20254;-82
2021/01/16 06:29:35;;;;;;;20.73;11.93;;;2.10;99.90;;;;;;4935486;29;20220;-83
2021/01/16 06:32:06;;;;;;;20.60;11.68;;;2.00;99.90;;;;;;4949009;28;20210;-81
2021/01/16 06:34:35;;;;;;;15.63;11.10;;;2.20;99.90;;;;;;4961548;28;20664;-82
2021/01/16 06:37:19;;;;;;;20.60;10.80;;;2.00;99.90;;;;;;4951849;28;615353;-82
2021/01/16 06:39:50;;;;;;;16.80;10.93;;;2.30;99.90;;;;;;4957315;28;20261;-82
2021/01/16 06:42:28;;;;;;;18.25;11.90;;;1.90;99.90;;;;;;4954831;28;20234;-82
2021/01/16 06:45:24;;;;;;;17.60;11.02;;;2.20;99.90;;;;;;4938806;28;20227;-83
2021/01/16 06:48:01;;;;;;;17.90;11.77;;;2.00;99.90;;;;;;4934724;29;20200;-83
2021/01/16 06:50:36;;;;;;;17.58;12.15;;;2.10;99.90;;;;;;4938222;29;20195;-83
2021/01/16 06:53:02;;;;;;;26.48;13.02;;;1.70;99.90;;;;;;4961128;28;20195;-82
2021/01/16 06:55:31;;;;;;;19.63;12.55;;;2.20;99.90;;;;;;4977056;28;20219;-83
2021/01/16 06:58:18;;;;;;;18.73;12.75;;;1.90;99.90;;;;;;4967665;28;20187;-85
2021/01/16 07:00:54;;;;;;;21.50;12.43;;;2.20;99.90;;;;;;4966170;28;20176;-83
2021/01/16 07:03:23;;;;;;;20.70;13.48;;;2.00;99.90;;;;;;4961642;28;20620;-83
2021/01/16 07:05:50;;;;;;;21.77;11.85;;;2.30;99.90;;;;;;4957931;28;20203;-83
2021/01/16 07:08:19;;;;;;;22.55;13.13;;;2.20;99.90;;;;;;4932533;29;20196;-84
2021/01/16 07:10:45;;;;;;;21.40;13.50;;;1.80;99.90;;;;;;4946256;28;20560;-84
2021/01/16 07:13:14;;;;;;;26.23;13.68;;;2.20;99.90;;;;;;4942782;29;20267;-84
2021/01/16 07:15:46;;;;;;;28.23;15.57;;;2.00;99.90;;;;;;4944910;29;20199;-84
2021/01/16 07:18:15;;;;;;;25.85;14.95;;;2.00;99.90;;;;;;4939481;29;20188;-83
2021/01/16 07:20:41;;;;;;;31.35;15.38;;;2.10;99.90;;;;;;4959704;28;20183;-84
2021/01/16 07:23:10;;;;;;;24.02;14.20;;;2.10;99.90;;;;;;4951366;29;20192;-83
2021/01/16 07:25:36;;;;;;;26.88;16.23;;;2.10;99.90;;;;;;4952781;28;20208;-83
2021/01/16 07:28:03;;;;;;;20.20;14.33;;;2.20;99.90;;;;;;4925185;29;20187;-83
2021/01/16 07:30:32;;;;;;;24.58;14.02;;;2.20;99.90;;;;;;4956516;28;20479;-84
2021/01/16 07:33:01;;;;;;;21.52;14.45;;;2.30;99.90;;;;;;4971753;28;20302;-82
2021/01/16 07:35:27;;;;;;;27.98;14.90;;;2.10;99.90;;;;;;4973704;28;20233;-82
2021/01/16 07:37:54;;;;;;;22.73;13.70;;;1.80;99.90;;;;;;4956692;28;20619;-82
2021/01/16 07:40:25;;;;;;;18.50;13.77;;;1.90;99.90;;;;;;4966343;28;20443;-80
2021/01/16 07:43:09;;;;;;;21.95;13.82;;;1.80;99.90;;;;;;4958461;28;20202;-82
2021/01/16 07:45:41;;;;;;;18.25;12.98;;;2.10;99.90;;;;;;4932521;29;20238;-82
2021/01/16 07:48:07;;;;;;;24.92;14.65;;;2.20;99.90;;;;;;4929725;28;20198;-82
2021/01/16 07:50:37;;;;;;;23.33;13.80;;;2.40;99.90;;;;;;4939349;28;20244;-82
2021/01/16 07:53:15;;;;;;;24.77;14.70;;;2.20;99.90;;;;;;4955813;28;20661;-83
2021/01/16 07:56:09;;;;;;;24.45;14.90;;;1.70;99.90;;;;;;4939250;29;20300;-82
2021/01/16 07:58:40;;;;;;;28.55;13.73;;;2.10;99.90;;;;;;4954496;28;20192;-81
2021/01/16 08:01:14;;;;;;;18.45;12.93;;;2.30;99.90;;;;;;4954698;28;20264;-82
2021/01/16 08:04:15;;;;;;;22.88;13.02;;;1.80;99.90;;;;;;4953839;28;20258;-82
2021/01/16 08:07:03;;;;;;;18.85;13.40;;;2.20;99.90;;;;;;4945048;28;20196;-82
2021/01/16 08:09:48;;;;;;;20.50;13.07;;;2.30;99.90;;;;;;4960075;28;20214;-83
2021/01/16 08:12:15;;;;;;;22.20;14.15;;;2.20;99.90;;;;;;4977177;28;20215;-83
2021/01/16 08:14:42;;;;;;;23.92;14.50;;;2.30;99.90;;;;;;4924975;28;20928;-82
2021/01/16 08:17:24;;;;;;;26.17;13.52;;;2.30;99.90;;;;;;4947471;28;20204;-82
2021/01/16 08:20:08;;;;;;;17.48;12.52;;;2.20;99.90;;;;;;4940950;28;20189;-82
2021/01/16 08:22:42;;;;;;;22.75;13.85;;;2.40;99.90;;;;;;4958727;29;20195;-82
2021/01/16 08:25:10;;;;;;;20.80;13.98;;;1.90;99.90;;;;;;4968849;28;20195;-86
2021/01/16 08:27:39;;;;;;;23.77;15.07;;;2.30;99.90;;;;;;4960750;28;20183;-85
2021/01/16 08:30:16;;;;;;;21.70;13.45;;;2.60;99.90;;;;;;4954914;29;20191;-83
2021/01/16 08:33:09;;;;;;;20.58;13.48;;;2.40;99.90;;;;;;4927528;28;20284;-84
2021/01/16 08:35:48;;;;;;;21.70;13.13;;;2.30;99.90;;;;;;4942955;28;20176;-85
2021/01/16 08:38:17;;;;;;;20.63;13.25;;;2.50;99.90;;;;;;4961957;28;20205;-83
2021/01/16 08:40:54;;;;;;;23.23;14.27;;;2.60;99.90;;;;;;4958142;28;20712;-83
2021/01/16 08:43:31;;;;;;;22.13;13.48;;;2.00;99.90;;;;;;4954728;28;20226;-83
2021/01/16 08:46:15;;;;;;;22.92;14.13;;;2.40;99.90;;;;;;4944169;28;20629;-83
2021/01/16 08:49:02;;;;;;;22.67;14.35;;;2.50;99.90;;;;;;4935299;29;20204;-82
2021/01/16 08:51:34;;;;;;;20.38;13.88;;;2.50;99.90;;;;;;4930252;29;20216;-83
2021/01/16 08:54:09;;;;;;;20.85;15.50;;;2.60;99.90;;;;;;4939122;29;20266;-84
2021/01/16 08:56:37;;;;;;;22.35;14.68;;;2.10;99.90;;;;;;4940415;29;20218;-84
2021/01/16 08:59:16;;;;;;;26.05;14.25;;;2.60;99.90;;;;;;4935328;28;20489;-85
2021/01/16 09:01:44;;;;;;;22.33;14.82;;;2.80;99.90;;;;;;4958427;29;20226;-86
2021/01/16 09:04:19;;;;;;;24.10;14.77;;;2.60;99.90;;;;;;4926343;29;20208;-85
2021/01/16 09:06:45;;;;;;;23.17;14.43;;;2.80;99.90;;;;;;4960535;28;20660;-84
2021/01/16 09:09:14;;;;;;;22.92;14.13;;;2.20;99.90;;;;;;4960198;28;20180;-83
2021/01/16 09:11:41;;;;;;;26.13;14.50;;;2.20;99.90;;;;;;4960223;28;20221;-83
2021/01/16 09:14:07;;;;;;;21.95;13.27;;;2.70;99.90;;;;;;4953254;28;20704;-84
2021/01/16 09:16:35;;;;;;;19.55;13.82;;;2.60;99.90;;;;;;4954610;28;20234;-84
2021/01/16 09:19:01;;;;;;;20.67;13.55;;;2.30;99.90;;;;;;4937783;29;20254;-84
2021/01/16 09:21:28;;;;;;;21.85;14.10;;;2.90;99.90;;;;;;4939807;29;20196;-84
2021/01/16 09:23:55;;;;;;;19.60;14.18;;;2.80;99.90;;;;;;4937765;29;20191;-84
2021/01/16 09:26:23;;;;;;;18.35;13.27;;;2.90;99.90;;;;;;4937344;29;20199;-84
2021/01/16 09:28:51;;;;;;;19.08;12.57;;;2.90;99.90;;;;;;4937528;29;20215;-84
2021/01/16 09:31:40;;;;;;;18.23;12.75;;;2.90;99.90;;;;;;4951402;28;20638;-84
2021/01/16 09:34:17;;;;;;;21.13;13.95;;;3.00;99.90;;;;;;4937559;29;20227;-83
2021/01/16 09:37:00;;;;;;;21.77;13.02;;;2.90;99.90;;;;;;4956947;28;20226;-83
2021/01/16 09:39:28;;;;;;;26.13;14.80;;;3.00;99.90;;;;;;4940972;28;20652;-84
2021/01/16 09:41:59;;;;;;;24.88;14.20;;;2.70;99.90;;;;;;4963382;28;20247;-85
2021/01/16 09:44:44;;;;;;;20.55;13.50;;;2.80;99.90;;;;;;4936991;28;20660;-84
2021/01/16 09:47:42;;;;;;;19.63;13.70;;;2.90;99.90;;;;;;4918132;29;20192;-85
2021/01/16 09:50:14;;;;;;;20.25;12.95;;;2.80;99.90;;;;;;4934740;28;20209;-84
2021/01/16 09:52:48;;;;;;;23.48;13.75;;;2.80;99.90;;;;;;4958089;28;20195;-84
2021/01/16 09:55:23;;;;;;;21.52;13.27;;;3.10;99.90;;;;;;4933020;29;20236;-86
2021/01/16 09:57:49;;;;;;;23.17;14.27;;;2.90;99.90;;;;;;4953884;28;20187;-86
2021/01/16 10:00:31;;;;;;;22.13;12.95;;;2.90;99.90;;;;;;4927826;29;20192;-84
2021/01/16 10:03:06;;;;;;;20.63;12.98;;;3.10;99.90;;;;;;4952457;28;20199;-85
2021/01/16 10:09:24;;;;;;;21.05;13.10;;;2.90;99.90;;;;;;4930260;29;20226;-86
2021/01/16 10:11:50;;;;;;;19.77;13.13;;;2.90;99.90;;;;;;4937527;28;20210;-87
2021/01/16 10:14:22;;;;;;;21.13;13.18;;;3.00;99.90;;;;;;4921099;29;20180;-87
2021/01/16 10:16:51;;;;;;;20.63;14.38;;;3.00;99.90;;;;;;4938070;29;20183;-86
2021/01/16 10:19:18;;;;;;;19.95;13.05;;;3.20;99.90;;;;;;4938615;28;20192;-87
2021/01/16 10:21:56;;;;;;;19.50;12.80;;;3.10;99.90;;;;;;4972588;28;20302;-85
2021/01/16 10:24:23;;;;;;;16.85;11.88;;;3.10;99.90;;;;;;4952836;28;20184;-83
2021/01/16 10:26:55;;;;;;;15.95;11.88;;;2.70;99.90;;;;;;4955687;28;20207;-84
2021/01/16 10:29:40;;;;;;;17.63;11.52;;;3.10;99.90;;;;;;4942124;28;20243;-84
2021/01/16 10:32:23;;;;;;;17.08;11.40;;;3.30;99.90;;;;;;4959542;28;20219;-83
2021/01/16 10:34:50;;;;;;;21.80;12.93;;;3.10;99.90;;;;;;4975171;28;20182;-85
2021/01/16 10:37:17;;;;;;;19.65;13.00;;;3.10;99.90;;;;;;4965418;28;20235;-85
2021/01/16 10:39:50;;;;;;;20.48;11.82;;;3.10;99.90;;;;;;4976935;28;20242;-85
2021/01/16 10:42:18;;;;;;;16.90;10.77;;;2.60;99.90;;;;;;4935699;28;20571;-85
2021/01/16 10:44:45;;;;;;;19.33;12.57;;;2.60;99.90;;;;;;4956694;28;20226;-86
2021/01/16 10:47:42;;;;;;;16.70;11.57;;;3.10;99.90;;;;;;4956046;29;20195;-85
2021/01/16 10:50:30;;;;;;;17.63;11.38;;;3.30;99.90;;;;;;4955255;28;20207;-85
2021/01/16 10:53:04;;;;;;;18.98;11.95;;;3.10;99.90;;;;;;4971539;28;20578;-85
2021/01/16 10:55:50;;;;;;;20.92;12.40;;;3.20;99.90;;;;;;4921351;28;20200;-86
2021/01/16 10:58:26;;;;;;;16.52;11.35;;;3.20;99.90;;;;;;4957810;28;20183;-86
2021/01/16 11:00:57;;;;;;;15.20;11.60;;;3.10;99.90;;;;;;4942387;28;20190;-86
2021/01/16 11:03:28;;;;;;;19.58;12.15;;;3.20;99.90;;;;;;4969166;28;20207;-86
2021/01/16 11:05:56;;;;;;;20.00;13.57;;;2.90;99.90;;;;;;4923428;29;20744;-86
2021/01/16 11:08:27;;;;;;;17.17;12.82;;;3.10;99.90;;;;;;4923627;29;20244;-85
2021/01/16 11:10:56;;;;;;;19.67;12.55;;;3.10;99.90;;;;;;4963717;28;20199;-86
2021/01/16 11:13:28;;;;;;;19.23;12.38;;;2.90;99.90;;;;;;4952283;28;20187;-85
2021/01/16 11:16:12;;;;;;;18.00;12.80;;;3.00;99.90;;;;;;4937147;29;20279;-85
2021/01/16 11:18:38;;;;;;;18.65;12.40;;;2.60;99.90;;;;;;4942917;28;20183;-85
2021/01/16 11:21:06;;;;;;;22.20;13.23;;;2.90;99.90;;;;;;4941493;29;20764;-85
2021/01/16 11:23:35;;;;;;;19.17;12.70;;;3.00;99.90;;;;;;4964203;28;20195;-85
2021/01/16 11:26:07;;;;;;;16.48;13.55;;;3.10;99.90;;;;;;4941624;29;20243;-86
2021/01/16 11:28:47;;;;;;;16.30;11.90;;;3.10;99.90;;;;;;4948475;28;20195;-85
2021/01/16 11:31:30;;;;;;;18.75;13.07;;;3.10;99.90;;;;;;4938245;29;20638;-86
2021/01/16 11:34:21;;;;;;;23.25;15.50;;;3.30;99.90;;;;;;4962680;28;20286;-86
2021/01/16 11:37:02;;;;;;;19.70;13.60;;;3.00;99.90;;;;;;4952896;28;20265;-79
2021/01/16 11:39:54;;;;;;;21.27;13.38;;;2.80;99.90;;;;;;4953022;28;20617;-80
2021/01/16 11:42:45;;;;;;;22.77;13.90;;;3.10;99.90;;;;;;4957541;28;20676;-80
2021/01/16 11:45:17;;;;;;;20.15;11.98;;;3.30;99.90;;;;;;4922006;29;20513;-80
2021/01/16 11:48:03;;;;;;;20.15;12.40;;;3.10;99.90;;;;;;4924169;29;20197;-79
2021/01/16 11:50:37;;;;;;;20.08;13.05;;;3.30;99.90;;;;;;4943790;28;20226;-80
2021/01/16 11:53:16;;;;;;;18.35;12.05;;;3.10;99.90;;;;;;4930729;29;20183;-79
2021/01/16 11:55:44;;;;;;;23.85;13.13;;;3.20;99.90;;;;;;4936439;29;20215;-79
2021/01/16 11:58:18;;;;;;;20.02;13.65;;;3.20;99.90;;;;;;4955854;28;20199;-80
2021/01/16 12:00:50;;;;;;;19.27;12.43;;;3.20;99.90;;;;;;4940466;29;20200;-80
2021/01/16 12:03:26;;;;;;;18.80;13.45;;;3.30;99.90;;;;;;4965304;28;20238;-79
2021/01/16 12:05:55;;;;;;;19.60;12.82;;;2.90;99.90;;;;;;4960671;28;20194;-80
2021/01/16 12:08:26;;;;;;;20.75;13.43;;;3.20;99.90;;;;;;4957019;29;20218;-80
2021/01/16 12:10:55;;;;;;;19.45;13.30;;;3.30;99.90;;;;;;4937402;29;20396;-80
2021/01/16 12:13:23;;;;;;;24.20;13.60;;;3.40;99.90;;;;;;4921700;29;20587;-80
2021/01/16 12:15:54;;;;;;;26.08;13.85;;;3.10;99.90;;;;;;4941972;28;20219;-81
2021/01/16 12:18:21;;;;;;;21.77;14.25;;;3.30;99.90;;;;;;4921668;29;20191;-80
2021/01/16 12:20:55;;;;;;;20.27;13.82;;;3.60;99.90;;;;;;4947575;29;20263;-79
2021/01/16 12:23:24;;;;;;;19.67;12.93;;;3.40;99.90;;;;;;4956264;29;20210;-80
2021/01/16 12:25:54;;;;;;;23.17;14.77;;;3.40;99.90;;;;;;4952931;28;20256;-79
2021/01/16 12:28:34;;;;;;;19.80;12.75;;;3.10;99.90;;;;;;4944168;29;20271;-80
2021/01/16 12:31:07;;;;;;;20.08;13.57;;;3.30;99.90;;;;;;4947298;29;20552;-80
2021/01/16 12:33:36;;;;;;;24.20;14.98;;;3.40;99.90;;;;;;4943616;29;20243;-79
2021/01/16 12:36:10;;;;;;;17.58;11.43;;;3.00;99.90;;;;;;4921145;29;20228;-80
2021/01/16 12:38:39;;;;;;;19.08;12.00;;;3.50;99.90;;;;;;4949321;29;20263;-79
2021/01/16 12:41:07;;;;;;;22.13;13.73;;;3.40;99.90;;;;;;4956702;28;20692;-79
2021/01/16 12:43:38;;;;;;;20.00;13.98;;;3.30;99.90;;;;;;4955543;29;20188;-80
2021/01/16 12:46:05;;;;;;;21.13;13.88;;;3.00;99.90;;;;;;4956422;29;20633;-80
2021/01/16 12:48:35;;;;;;;22.45;12.70;;;3.40;99.90;;;;;;4940377;29;20223;-79
2021/01/16 12:51:08;;;;;;;22.08;14.30;;;2.90;99.90;;;;;;4920798;29;20216;-79
2021/01/16 12:53:38;;;;;;;20.85;14.07;;;3.40;99.90;;;;;;4921549;29;20275;-79
2021/01/16 12:56:21;;;;;;;20.73;14.35;;;3.40;99.90;;;;;;4939375;28;20240;-80
2021/01/16 12:58:54;;;;;;;19.65;12.57;;;3.30;99.90;;;;;;4955685;29;20617;-80
2021/01/16 13:01:22;;;;;;;24.77;14.38;;;3.10;99.90;;;;;;4939997;29;20190;-80
2021/01/16 13:03:54;;;;;;;18.98;13.07;;;3.40;99.90;;;;;;4956337;28;20511;-80